CheckWX is a tool to help pilots better visualize weather data.  It is not intended as a substitute for an official pre-flight weather briefing.

02:47:30 UTC

EETU METAR
Tartu Airport
Tartu, Estonia
Current

58 mins ago

EETU 230150Z 29006KT CAVOK 01/M01 Q1021
Observed
Sep-23 @ 01:50 UTC
Wind
  • 290° at 6 KTS
Visibility
10,000+ meters
Flight Rules
VFR
Cloud Levels
  • Clear skies
Temperature
C / 34°F
Dewpoint
-1°C / 30°F
Humidity
87%
Altimeter
30.15" Hg
Pressure
1020.92 hPa
Previous

2 hours ago

EETU 230050Z 28006KT CAVOK 01/M01 Q1021
Observed
Sep-23 @ 00:50 UTC
Wind
  • 280° at 6 KTS
Visibility
10,000+ meters
Flight Rules
VFR
Cloud Levels
  • Clear skies
Temperature
C / 34°F
Dewpoint
-1°C / 30°F
Humidity
87%
Altimeter
30.15" Hg
Pressure
1020.92 hPa
Previous

3 hours ago

EETU 222350Z 29006KT 9999 SCT042 01/M00 Q1020
Observed
Sep-22 @ 23:50 UTC
Wind
  • 290° at 6 KTS
Visibility
10,000+ meters
Flight Rules
VFR
Cloud Levels
  • Scattered at 4,200' AGL
Temperature
C / 34°F
Dewpoint
C / 32°F
Humidity
93%
Altimeter
30.12" Hg
Pressure
1019.92 hPa